sensor_id;sensor_type;location;lat;lon;timestamp;pressure;altitude;pressure_sealevel;temperature;humidity
23318;BME280;11831;55.918;37.746;2023-02-14T00:00:22;98106.03;;;2.15;0.00
23318;BME280;11831;55.918;37.746;2023-02-14T00:02:48;98101.34;;;2.24;0.00
23318;BME280;11831;55.918;37.746;2023-02-14T00:05:15;98096.63;;;2.39;0.00
23318;BME280;11831;55.918;37.746;2023-02-14T00:07:41;98097.25;;;2.35;0.00
23318;BME280;11831;55.918;37.746;2023-02-14T00:10:08;98099.53;;;2.18;0.00
23318;BME280;11831;55.918;37.746;2023-02-14T00:12:35;98100.16;;;2.20;0.00
23318;BME280;11831;55.918;37.746;2023-02-14T00:15:01;98107.78;;;2.41;0.00
23318;BME280;11831;55.918;37.746;2023-02-14T00:17:46;98110.25;;;2.30;0.00
23318;BME280;11831;55.918;37.746;2023-02-14T00:20:12;98107.44;;;2.11;0.00
23318;BME280;11831;55.918;37.746;2023-02-14T00:22:39;98112.53;;;2.06;0.00
23318;BME280;11831;55.918;37.746;2023-02-14T00:25:06;98098.53;;;2.19;0.00
23318;BME280;11831;55.918;37.746;2023-02-14T00:27:32;98109.41;;;2.36;0.00
23318;BME280;11831;55.918;37.746;2023-02-14T00:30:00;98126.91;;;2.24;0.00
23318;BME280;11831;55.918;37.746;2023-02-14T00:32:29;98120.03;;;2.03;0.00
23318;BME280;11831;55.918;37.746;2023-02-14T00:34:56;98104.84;;;1.98;0.00
23318;BME280;11831;55.918;37.746;2023-02-14T00:37:22;98133.44;;;1.88;0.00
23318;BME280;11831;55.918;37.746;2023-02-14T00:39:49;98122.06;;;2.21;0.00
23318;BME280;11831;55.918;37.746;2023-02-14T00:42:15;98137.44;;;2.30;0.00
23318;BME280;11831;55.918;37.746;2023-02-14T00:44:42;98134.41;;;2.13;0.00
23318;BME280;11831;55.918;37.746;2023-02-14T00:47:08;98139.50;;;2.15;0.00
23318;BME280;11831;55.918;37.746;2023-02-14T00:49:34;98135.03;;;2.15;0.00
23318;BME280;11831;55.918;37.746;2023-02-14T00:52:01;98130.56;;;2.09;0.00
23318;BME280;11831;55.918;37.746;2023-02-14T00:54:27;98141.06;;;2.49;0.00
23318;BME280;11831;55.918;37.746;2023-02-14T00:56:53;98139.63;;;2.53;0.00
23318;BME280;11831;55.918;37.746;2023-02-14T00:59:20;98145.09;;;2.58;0.00
23318;BME280;11831;55.918;37.746;2023-02-14T01:01:46;98134.37;;;2.33;0.00
23318;BME280;11831;55.918;37.746;2023-02-14T01:04:12;98126.03;;;2.49;0.00
23318;BME280;11831;55.918;37.746;2023-02-14T01:06:38;98141.25;;;2.41;0.00
23318;BME280;11831;55.918;37.746;2023-02-14T01:09:05;98136.22;;;2.33;0.00
23318;BME280;11831;55.918;37.746;2023-02-14T01:11:32;98135.56;;;2.51;0.00
23318;BME280;11831;55.918;37.746;2023-02-14T01:13:58;98146.94;;;2.38;0.00
23318;BME280;11831;55.918;37.746;2023-02-14T01:16:26;98137.16;;;2.58;0.00
23318;BME280;11831;55.918;37.746;2023-02-14T01:18:53;98139.28;;;2.23;0.00
23318;BME280;11831;55.918;37.746;2023-02-14T01:21:25;98144.16;;;2.13;0.00
23318;BME280;11831;55.918;37.746;2023-02-14T01:23:54;98145.97;;;2.26;0.00
23318;BME280;11831;55.918;37.746;2023-02-14T01:26:21;98150.06;;;2.15;0.00
23318;BME280;11831;55.918;37.746;2023-02-14T01:28:48;98147.00;;;2.05;0.00
23318;BME280;11831;55.918;37.746;2023-02-14T01:31:21;98145.97;;;2.32;0.00
23318;BME280;11831;55.918;37.746;2023-02-14T01:33:48;98127.31;;;2.21;0.00
23318;BME280;11831;55.918;37.746;2023-02-14T01:36:17;98137.88;;;2.07;0.00
23318;BME280;11831;55.918;37.746;2023-02-14T01:38:44;98147.75;;;2.38;0.00
23318;BME280;11831;55.918;37.746;2023-02-14T01:41:11;98148.37;;;2.47;0.00
23318;BME280;11831;55.918;37.746;2023-02-14T01:46:19;98148.63;;;2.19;0.00
23318;BME280;11831;55.918;37.746;2023-02-14T01:48:46;98162.81;;;2.31;0.00
23318;BME280;11831;55.918;37.746;2023-02-14T01:51:14;98150.19;;;2.46;0.00
23318;BME280;11831;55.918;37.746;2023-02-14T01:53:42;98150.47;;;2.05;0.00
23318;BME280;11831;55.918;37.746;2023-02-14T01:56:12;98143.78;;;2.16;0.00
23318;BME280;11831;55.918;37.746;2023-02-14T01:58:42;98152.81;;;2.53;0.00
23318;BME280;11831;55.918;37.746;2023-02-14T02:01:14;98157.72;;;2.36;0.00
23318;BME280;11831;55.918;37.746;2023-02-14T02:04:06;98153.84;;;2.45;0.00
23318;BME280;11831;55.918;37.746;2023-02-14T02:06:38;98149.59;;;2.38;0.00
23318;BME280;11831;55.918;37.746;2023-02-14T02:09:07;98146.03;;;1.93;0.00
23318;BME280;11831;55.918;37.746;2023-02-14T02:11:36;98154.53;;;2.01;0.00
23318;BME280;11831;55.918;37.746;2023-02-14T02:14:03;98162.63;;;1.80;0.00
23318;BME280;11831;55.918;37.746;2023-02-14T02:23:51;98182.72;;;1.94;0.00
23318;BME280;11831;55.918;37.746;2023-02-14T02:31:43;98168.72;;;1.67;0.00
23318;BME280;11831;55.918;37.746;2023-02-14T02:39:48;98202.37;;;1.78;0.00
23318;BME280;11831;55.918;37.746;2023-02-14T02:50:24;98193.03;;;1.76;0.00
23318;BME280;11831;55.918;37.746;2023-02-14T02:56:21;98194.66;;;1.70;0.00
23318;BME280;11831;55.918;37.746;2023-02-14T03:02:19;98191.41;;;1.68;0.00
23318;BME280;11831;55.918;37.746;2023-02-14T03:04:54;98202.37;;;1.72;0.00
23318;BME280;11831;55.918;37.746;2023-02-14T03:07:32;98180.66;;;1.76;0.00
23318;BME280;11831;55.918;37.746;2023-02-14T03:10:19;98200.72;;;1.58;0.00
23318;BME280;11831;55.918;37.746;2023-02-14T03:15:53;98202.59;;;1.97;0.00
23318;BME280;11831;55.918;37.746;2023-02-14T03:24:27;98212.72;;;2.20;0.00
23318;BME280;11831;55.918;37.746;2023-02-14T03:32:52;98208.88;;;2.02;0.00
23318;BME280;11831;55.918;37.746;2023-02-14T03:35:45;98200.78;;;1.84;0.00
23318;BME280;11831;55.918;37.746;2023-02-14T03:38:21;98211.69;;;1.81;0.00
23318;BME280;11831;55.918;37.746;2023-02-14T03:40:57;98203.56;;;1.82;0.00
23318;BME280;11831;55.918;37.746;2023-02-14T03:43:45;98212.94;;;2.05;0.00
23318;BME280;11831;55.918;37.746;2023-02-14T03:46:40;98221.62;;;1.79;0.00
23318;BME280;11831;55.918;37.746;2023-02-14T03:49:14;98226.72;;;2.13;0.00
23318;BME280;11831;55.918;37.746;2023-02-14T03:51:44;98224.69;;;2.09;0.00
23318;BME280;11831;55.918;37.746;2023-02-14T03:54:14;98219.59;;;1.81;0.00
23318;BME280;11831;55.918;37.746;2023-02-14T03:56:49;98237.03;;;1.82;0.00
23318;BME280;11831;55.918;37.746;2023-02-14T03:59:23;98235.22;;;1.82;0.00
23318;BME280;11831;55.918;37.746;2023-02-14T04:01:56;98223.66;;;1.77;0.00
23318;BME280;11831;55.918;37.746;2023-02-14T04:04:29;98216.34;;;1.72;0.00
23318;BME280;11831;55.918;37.746;2023-02-14T04:06:57;98239.09;;;1.93;0.00
23318;BME280;11831;55.918;37.746;2023-02-14T04:09:24;98237.88;;;2.29;0.00
23318;BME280;11831;55.918;37.746;2023-02-14T04:11:50;98238.66;;;1.76;0.00
23318;BME280;11831;55.918;37.746;2023-02-14T04:14:17;98248.22;;;1.97;0.00
23318;BME280;11831;55.918;37.746;2023-02-14T04:16:44;98246.59;;;2.03;0.00
23318;BME280;11831;55.918;37.746;2023-02-14T04:19:28;98249.66;;;2.26;0.00
23318;BME280;11831;55.918;37.746;2023-02-14T04:21:55;98244.56;;;1.98;0.00
23318;BME280;11831;55.918;37.746;2023-02-14T04:24:21;98249.44;;;2.08;0.00
23318;BME280;11831;55.918;37.746;2023-02-14T04:26:47;98248.22;;;2.10;0.00
23318;BME280;11831;55.918;37.746;2023-02-14T04:29:46;98244.16;;;1.88;0.00
23318;BME280;11831;55.918;37.746;2023-02-14T04:32:18;98250.84;;;1.91;0.00
23318;BME280;11831;55.918;37.746;2023-02-14T04:34:45;98259.38;;;1.86;0.00
23318;BME280;11831;55.918;37.746;2023-02-14T04:37:12;98257.69;;;1.72;0.00
23318;BME280;11831;55.918;37.746;2023-02-14T04:39:39;98264.78;;;1.65;0.00
23318;BME280;11831;55.918;37.746;2023-02-14T04:42:05;98251.81;;;1.76;0.00
23318;BME280;11831;55.918;37.746;2023-02-14T04:44:31;98247.37;;;1.77;0.00
23318;BME280;11831;55.918;37.746;2023-02-14T04:47:03;98267.41;;;1.65;0.00
23318;BME280;11831;55.918;37.746;2023-02-14T04:49:30;98259.38;;;1.86;0.00
23318;BME280;11831;55.918;37.746;2023-02-14T04:51:56;98272.16;;;2.02;0.00
23318;BME280;11831;55.918;37.746;2023-02-14T04:54:22;98270.28;;;1.76;0.00
23318;BME280;11831;55.918;37.746;2023-02-14T04:56:49;98273.56;;;1.85;0.00
23318;BME280;11831;55.918;37.746;2023-02-14T04:59:15;98279.66;;;1.92;0.00
23318;BME280;11831;55.918;37.746;2023-02-14T05:01:41;98283.69;;;1.88;0.00
23318;BME280;11831;55.918;37.746;2023-02-14T05:04:08;98292.41;;;1.89;0.00
23318;BME280;11831;55.918;37.746;2023-02-14T05:06:34;98295.66;;;1.97;0.00
23318;BME280;11831;55.918;37.746;2023-02-14T05:09:01;98284.91;;;1.92;0.00
23318;BME280;11831;55.918;37.746;2023-02-14T05:11:29;98290.59;;;2.09;0.00
23318;BME280;11831;55.918;37.746;2023-02-14T05:13:55;98294.03;;;1.96;0.00
23318;BME280;11831;55.918;37.746;2023-02-14T05:16:22;98296.69;;;1.96;0.00
23318;BME280;11831;55.918;37.746;2023-02-14T05:18:48;98291.59;;;1.88;0.00
23318;BME280;11831;55.918;37.746;2023-02-14T05:21:15;98290.38;;;1.84;0.00
23318;BME280;11831;55.918;37.746;2023-02-14T05:23:42;98311.28;;;2.05;0.00
23318;BME280;11831;55.918;37.746;2023-02-14T05:26:08;98305.00;;;2.13;0.00
23318;BME280;11831;55.918;37.746;2023-02-14T05:28:35;98301.34;;;2.01;0.00
23318;BME280;11831;55.918;37.746;2023-02-14T05:31:01;98322.84;;;1.98;0.00
23318;BME280;11831;55.918;37.746;2023-02-14T05:33:28;98322.03;;;1.97;0.00
23318;BME280;11831;55.918;37.746;2023-02-14T05:35:54;98323.84;;;1.97;0.00
23318;BME280;11831;55.918;37.746;2023-02-14T05:38:23;98312.72;;;2.01;0.00
23318;BME280;11831;55.918;37.746;2023-02-14T05:40:49;98305.34;;;1.77;0.00
23318;BME280;11831;55.918;37.746;2023-02-14T05:43:16;98307.28;;;2.16;0.00
23318;BME280;11831;55.918;37.746;2023-02-14T05:45:42;98323.25;;;2.01;0.00
23318;BME280;11831;55.918;37.746;2023-02-14T05:48:08;98326.09;;;2.00;0.00
23318;BME280;11831;55.918;37.746;2023-02-14T05:50:34;98314.75;;;2.12;0.00
23318;BME280;11831;55.918;37.746;2023-02-14T05:53:01;98340.50;;;2.10;0.00
23318;BME280;11831;55.918;37.746;2023-02-14T05:55:27;98347.13;;;1.80;0.00
23318;BME280;11831;55.918;37.746;2023-02-14T05:57:54;98328.53;;;2.01;0.00
23318;BME280;11831;55.918;37.746;2023-02-14T06:00:21;98324.87;;;1.96;0.00
23318;BME280;11831;55.918;37.746;2023-02-14T06:02:47;98326.47;;;1.90;0.00
23318;BME280;11831;55.918;37.746;2023-02-14T06:05:14;98340.75;;;2.29;0.00
23318;BME280;11831;55.918;37.746;2023-02-14T06:07:43;98331.34;;;1.86;0.00
23318;BME280;11831;55.918;37.746;2023-02-14T06:10:16;98337.25;;;2.02;0.00
23318;BME280;11831;55.918;37.746;2023-02-14T06:12:43;98337.44;;;1.94;0.00
23318;BME280;11831;55.918;37.746;2023-02-14T06:15:10;98328.12;;;2.11;0.00
23318;BME280;11831;55.918;37.746;2023-02-14T06:17:37;98324.91;;;2.22;0.00
23318;BME280;11831;55.918;37.746;2023-02-14T06:20:03;98337.50;;;2.40;0.00
23318;BME280;11831;55.918;37.746;2023-02-14T06:22:30;98326.16;;;2.53;0.00
23318;BME280;11831;55.918;37.746;2023-02-14T06:24:56;98334.25;;;2.71;0.00
23318;BME280;11831;55.918;37.746;2023-02-14T06:27:22;98328.97;;;2.71;0.00
23318;BME280;11831;55.918;37.746;2023-02-14T06:29:49;98335.09;;;2.52;0.00
23318;BME280;11831;55.918;37.746;2023-02-14T06:32:15;98333.88;;;2.54;0.00
23318;BME280;11831;55.918;37.746;2023-02-14T06:34:42;98321.47;;;2.55;0.00
23318;BME280;11831;55.918;37.746;2023-02-14T06:37:08;98353.56;;;2.45;0.00
23318;BME280;11831;55.918;37.746;2023-02-14T06:39:34;98346.03;;;2.42;0.00
23318;BME280;11831;55.918;37.746;2023-02-14T06:42:00;98344.41;;;2.41;0.00
23318;BME280;11831;55.918;37.746;2023-02-14T06:44:27;98346.25;;;2.54;0.00
23318;BME280;11831;55.918;37.746;2023-02-14T06:46:53;98360.66;;;2.64;0.00
23318;BME280;11831;55.918;37.746;2023-02-14T06:49:19;98366.75;;;2.65;0.00
23318;BME280;11831;55.918;37.746;2023-02-14T06:51:46;98367.75;;;2.84;0.00
23318;BME280;11831;55.918;37.746;2023-02-14T06:54:12;98373.62;;;2.72;0.00
23318;BME280;11831;55.918;37.746;2023-02-14T06:56:38;98362.47;;;2.64;0.00
23318;BME280;11831;55.918;37.746;2023-02-14T06:59:04;98363.28;;;2.71;0.00
23318;BME280;11831;55.918;37.746;2023-02-14T07:01:31;98372.81;;;2.72;0.00
23318;BME280;11831;55.918;37.746;2023-02-14T07:03:57;98370.59;;;2.62;0.00
23318;BME280;11831;55.918;37.746;2023-02-14T07:06:23;98371.22;;;2.77;0.00
23318;BME280;11831;55.918;37.746;2023-02-14T07:08:50;98372.22;;;2.83;0.00
23318;BME280;11831;55.918;37.746;2023-02-14T07:11:16;98383.41;;;2.52;0.00
23318;BME280;11831;55.918;37.746;2023-02-14T07:13:43;98378.31;;;2.64;0.00
23318;BME280;11831;55.918;37.746;2023-02-14T07:16:09;98396.78;;;2.51;0.00
23318;BME280;11831;55.918;37.746;2023-02-14T07:18:36;98386.81;;;2.26;0.00
23318;BME280;11831;55.918;37.746;2023-02-14T07:21:02;98402.84;;;2.31;0.00
23318;BME280;11831;55.918;37.746;2023-02-14T07:23:29;98402.63;;;2.39;0.00
23318;BME280;11831;55.918;37.746;2023-02-14T07:25:55;98402.63;;;2.26;0.00
23318;BME280;11831;55.918;37.746;2023-02-14T07:28:21;98399.59;;;2.36;0.00
23318;BME280;11831;55.918;37.746;2023-02-14T07:30:48;98391.47;;;2.44;0.00
23318;BME280;11831;55.918;37.746;2023-02-14T07:33:14;98416.06;;;2.71;0.00
23318;BME280;11831;55.918;37.746;2023-02-14T07:35:40;98412.62;;;2.51;0.00
23318;BME280;11831;55.918;37.746;2023-02-14T07:38:06;98417.09;;;2.50;0.00
23318;BME280;11831;55.918;37.746;2023-02-14T07:40:33;98405.91;;;2.48;0.00
23318;BME280;11831;55.918;37.746;2023-02-14T07:42:59;98422.81;;;2.80;0.00
23318;BME280;11831;55.918;37.746;2023-02-14T07:45:26;98420.16;;;2.87;0.00
23318;BME280;11831;55.918;37.746;2023-02-14T07:47:53;98419.31;;;2.60;0.00
23318;BME280;11831;55.918;37.746;2023-02-14T07:50:21;98417.94;;;2.84;0.00
23318;BME280;11831;55.918;37.746;2023-02-14T07:52:48;98398.22;;;2.73;0.00
23318;BME280;11831;55.918;37.746;2023-02-14T07:55:14;98424.03;;;2.77;0.00
23318;BME280;11831;55.918;37.746;2023-02-14T07:57:41;98419.56;;;2.78;0.00
23318;BME280;11831;55.918;37.746;2023-02-14T08:00:08;98423.37;;;2.49;0.00
23318;BME280;11831;55.918;37.746;2023-02-14T08:02:38;98426.59;;;2.44;0.00
23318;BME280;11831;55.918;37.746;2023-02-14T08:05:04;98425.25;;;2.82;0.00
23318;BME280;11831;55.918;37.746;2023-02-14T08:07:31;98409.41;;;2.82;0.00
23318;BME280;11831;55.918;37.746;2023-02-14T08:09:57;98428.06;;;2.87;0.00
23318;BME280;11831;55.918;37.746;2023-02-14T08:12:23;98430.91;;;3.38;0.00
23318;BME280;11831;55.918;37.746;2023-02-14T08:15:08;98443.12;;;3.12;0.00
23318;BME280;11831;55.918;37.746;2023-02-14T08:17:55;98449.62;;;3.10;0.00
23318;BME280;11831;55.918;37.746;2023-02-14T08:20:21;98457.94;;;2.80;0.00
23318;BME280;11831;55.918;37.746;2023-02-14T08:22:47;98464.00;;;2.74;0.00
23318;BME280;11831;55.918;37.746;2023-02-14T08:25:14;98475.19;;;2.83;0.00
23318;BME280;11831;55.918;37.746;2023-02-14T08:27:40;98471.75;;;3.42;0.00
23318;BME280;11831;55.918;37.746;2023-02-14T08:30:07;98473.97;;;3.25;0.00
23318;BME280;11831;55.918;37.746;2023-02-14T08:32:34;98468.63;;;3.65;0.00
23318;BME280;11831;55.918;37.746;2023-02-14T08:35:00;98475.59;;;2.93;0.00
23318;BME280;11831;55.918;37.746;2023-02-14T08:37:26;98480.00;;;2.53;0.00
23318;BME280;11831;55.918;37.746;2023-02-14T08:39:52;98503.25;;;3.30;0.00
23318;BME280;11831;55.918;37.746;2023-02-14T08:42:18;98496.12;;;3.31;0.00
23318;BME280;11831;55.918;37.746;2023-02-14T08:44:45;98496.34;;;3.09;0.00
23318;BME280;11831;55.918;37.746;2023-02-14T08:47:11;98507.69;;;3.76;0.00
23318;BME280;11831;55.918;37.746;2023-02-14T08:49:37;98494.44;;;2.70;0.00
23318;BME280;11831;55.918;37.746;2023-02-14T08:52:04;98499.16;;;2.95;0.00
23318;BME280;11831;55.918;37.746;2023-02-14T08:54:30;98514.16;;;2.74;0.00
23318;BME280;11831;55.918;37.746;2023-02-14T08:56:56;98519.47;;;2.81;0.00
23318;BME280;11831;55.918;37.746;2023-02-14T08:59:23;98508.78;;;2.41;0.00
23318;BME280;11831;55.918;37.746;2023-02-14T09:01:49;98517.00;;;2.73;0.00
23318;BME280;11831;55.918;37.746;2023-02-14T09:04:15;98524.22;;;2.44;0.00
23318;BME280;11831;55.918;37.746;2023-02-14T09:06:42;98517.59;;;2.75;0.00
23318;BME280;11831;55.918;37.746;2023-02-14T09:09:08;98514.91;;;2.48;0.00
23318;BME280;11831;55.918;37.746;2023-02-14T09:11:34;98514.41;;;2.25;0.00
23318;BME280;11831;55.918;37.746;2023-02-14T09:14:01;98528.63;;;2.24;0.00
23318;BME280;11831;55.918;37.746;2023-02-14T09:16:27;98534.75;;;2.38;0.00
23318;BME280;11831;55.918;37.746;2023-02-14T09:18:53;98514.84;;;2.35;0.00
23318;BME280;11831;55.918;37.746;2023-02-14T09:21:24;98529.53;;;2.51;0.00
23318;BME280;11831;55.918;37.746;2023-02-14T09:23:51;98526.91;;;2.51;0.00
23318;BME280;11831;55.918;37.746;2023-02-14T09:26:18;98538.88;;;2.47;0.00
23318;BME280;11831;55.918;37.746;2023-02-14T09:28:45;98540.03;;;2.38;0.00
23318;BME280;11831;55.918;37.746;2023-02-14T09:31:14;98521.41;;;2.46;0.00
23318;BME280;11831;55.918;37.746;2023-02-14T09:33:42;98530.63;;;2.76;0.00
23318;BME280;11831;55.918;37.746;2023-02-14T09:36:08;98540.59;;;3.01;0.00
23318;BME280;11831;55.918;37.746;2023-02-14T09:38:46;98537.16;;;2.94;0.00
23318;BME280;11831;55.918;37.746;2023-02-14T09:44:05;98556.97;;;2.63;0.00
23318;BME280;11831;55.918;37.746;2023-02-14T09:46:42;98547.09;;;2.85;0.00
23318;BME280;11831;55.918;37.746;2023-02-14T09:49:13;98553.28;;;2.51;0.00
23318;BME280;11831;55.918;37.746;2023-02-14T09:51:46;98561.44;;;2.69;0.00
23318;BME280;11831;55.918;37.746;2023-02-14T09:54:19;98550.59;;;2.44;0.00
23318;BME280;11831;55.918;37.746;2023-02-14T10:02:36;98575.13;;;2.86;0.00
23318;BME280;11831;55.918;37.746;2023-02-14T10:10:26;98609.66;;;2.85;0.00
23318;BME280;11831;55.918;37.746;2023-02-14T10:13:03;98616.25;;;2.61;0.00
23318;BME280;11831;55.918;37.746;2023-02-14T10:15:38;98611.97;;;2.60;0.00
23318;BME280;11831;55.918;37.746;2023-02-14T10:18:18;98596.97;;;2.60;0.00
23318;BME280;11831;55.918;37.746;2023-02-14T10:20:50;98597.94;;;2.46;0.00
23318;BME280;11831;55.918;37.746;2023-02-14T10:26:29;98604.66;;;2.55;0.00
23318;BME280;11831;55.918;37.746;2023-02-14T10:28:58;98640.16;;;2.46;0.00
23318;BME280;11831;55.918;37.746;2023-02-14T10:31:25;98648.09;;;2.53;0.00
23318;BME280;11831;55.918;37.746;2023-02-14T10:34:13;98647.16;;;2.32;0.00
23318;BME280;11831;55.918;37.746;2023-02-14T10:42:49;98626.94;;;2.94;0.00
23318;BME280;11831;55.918;37.746;2023-02-14T10:44:59;98620.87;;;2.52;0.00
23318;BME280;11831;55.918;37.746;2023-02-14T10:48:29;98644.22;;;2.48;0.00
23318;BME280;11831;55.918;37.746;2023-02-14T10:56:05;98650.06;;;2.44;0.00
23318;BME280;11831;55.918;37.746;2023-02-14T10:58:35;98659.63;;;2.86;0.00
23318;BME280;11831;55.918;37.746;2023-02-14T11:01:15;98653.88;;;2.76;0.00
23318;BME280;11831;55.918;37.746;2023-02-14T11:04:02;98654.28;;;2.38;0.00
23318;BME280;11831;55.918;37.746;2023-02-14T11:06:32;98670.69;;;2.34;0.00
23318;BME280;11831;55.918;37.746;2023-02-14T11:08:58;98684.19;;;2.45;0.00
23318;BME280;11831;55.918;37.746;2023-02-14T11:16:47;98688.34;;;2.68;0.00
23318;BME280;11831;55.918;37.746;2023-02-14T11:19:23;98696.38;;;2.88;0.00
23318;BME280;11831;55.918;37.746;2023-02-14T11:21:51;98682.78;;;2.91;0.00
23318;BME280;11831;55.918;37.746;2023-02-14T11:24:25;98671.72;;;2.74;0.00
23318;BME280;11831;55.918;37.746;2023-02-14T11:26:54;98683.88;;;2.68;0.00
23318;BME280;11831;55.918;37.746;2023-02-14T11:29:46;98692.66;;;2.75;0.00
23318;BME280;11831;55.918;37.746;2023-02-14T11:32:28;98688.25;;;2.48;0.00
23318;BME280;11831;55.918;37.746;2023-02-14T11:35:06;98711.81;;;2.49;0.00
23318;BME280;11831;55.918;37.746;2023-02-14T11:37:47;98710.16;;;2.83;0.00
23318;BME280;11831;55.918;37.746;2023-02-14T11:40:34;98716.41;;;2.75;0.00
23318;BME280;11831;55.918;37.746;2023-02-14T11:43:29;98720.69;;;3.18;0.00
23318;BME280;11831;55.918;37.746;2023-02-14T11:49:03;98715.22;;;3.26;0.00
23318;BME280;11831;55.918;37.746;2023-02-14T11:51:35;98717.19;;;4.04;0.00
23318;BME280;11831;55.918;37.746;2023-02-14T11:54:04;98709.22;;;4.44;0.00
23318;BME280;11831;55.918;37.746;2023-02-14T11:59:35;98724.03;;;5.68;0.00
23318;BME280;11831;55.918;37.746;2023-02-14T12:05:34;98735.59;;;6.61;0.00
23318;BME280;11831;55.918;37.746;2023-02-14T12:08:04;98741.91;;;5.79;0.00
23318;BME280;11831;55.918;37.746;2023-02-14T12:10:35;98747.69;;;6.07;0.00
23318;BME280;11831;55.918;37.746;2023-02-14T12:26:39;98759.41;;;3.52;0.00
23318;BME280;11831;55.918;37.746;2023-02-14T12:31:37;98777.09;;;3.51;0.00
23318;BME280;11831;55.918;37.746;2023-02-14T12:34:04;98785.31;;;3.83;0.00
23318;BME280;11831;55.918;37.746;2023-02-14T12:41:47;98789.03;;;2.93;0.00
23318;BME280;11831;55.918;37.746;2023-02-14T13:07:12;98800.12;;;2.82;0.00
23318;BME280;11831;55.918;37.746;2023-02-14T13:09:58;98833.41;;;2.48;0.00
23318;BME280;11831;55.918;37.746;2023-02-14T13:12:33;98844.50;;;2.43;0.00
23318;BME280;11831;55.918;37.746;2023-02-14T13:15:10;98850.28;;;2.54;0.00
23318;BME280;11831;55.918;37.746;2023-02-14T13:17:49;98851.88;;;2.48;0.00
23318;BME280;11831;55.918;37.746;2023-02-14T13:23:19;98851.25;;;2.46;0.00
23318;BME280;11831;55.918;37.746;2023-02-14T13:25:56;98870.25;;;2.91;0.00
23318;BME280;11831;55.918;37.746;2023-02-14T13:28:24;98876.38;;;2.91;0.00
23318;BME280;11831;55.918;37.746;2023-02-14T13:30:53;98880.22;;;2.89;0.00
23318;BME280;11831;55.918;37.746;2023-02-14T13:33:27;98875.84;;;2.32;0.00
23318;BME280;11831;55.918;37.746;2023-02-14T13:35:59;98895.28;;;2.45;0.00
23318;BME280;11831;55.918;37.746;2023-02-14T13:38:27;98893.09;;;2.49;0.00
23318;BME280;11831;55.918;37.746;2023-02-14T13:40:57;98902.34;;;2.66;0.00
23318;BME280;11831;55.918;37.746;2023-02-14T13:46:11;98912.28;;;2.64;0.00
23318;BME280;11831;55.918;37.746;2023-02-14T13:48:38;98908.41;;;2.60;0.00
23318;BME280;11831;55.918;37.746;2023-02-14T13:51:09;98900.88;;;2.57;0.00
23318;BME280;11831;55.918;37.746;2023-02-14T13:58:59;98915.59;;;2.45;0.00
23318;BME280;11831;55.918;37.746;2023-02-14T14:01:33;98922.31;;;2.11;0.00
23318;BME280;11831;55.918;37.746;2023-02-14T14:17:39;98961.34;;;2.16;0.00
23318;BME280;11831;55.918;37.746;2023-02-14T14:22:56;98972.56;;;1.89;0.00
23318;BME280;11831;55.918;37.746;2023-02-14T14:25:36;98968.88;;;2.19;0.00
23318;BME280;11831;55.918;37.746;2023-02-14T14:28:30;98971.81;;;1.95;0.00
23318;BME280;11831;55.918;37.746;2023-02-14T14:30:57;98980.47;;;1.89;0.00
23318;BME280;11831;55.918;37.746;2023-02-14T14:35:56;98993.19;;;2.14;0.00
23318;BME280;11831;55.918;37.746;2023-02-14T14:38:24;98999.28;;;2.00;0.00
23318;BME280;11831;55.918;37.746;2023-02-14T14:40:51;98997.56;;;1.93;0.00
23318;BME280;11831;55.918;37.746;2023-02-14T14:43:33;98996.94;;;1.91;0.00
23318;BME280;11831;55.918;37.746;2023-02-14T14:46:01;99005.38;;;2.01;0.00
23318;BME280;11831;55.918;37.746;2023-02-14T14:48:31;98992.09;;;1.94;0.00
23318;BME280;11831;55.918;37.746;2023-02-14T14:50:58;99018.81;;;1.76;0.00
23318;BME280;11831;55.918;37.746;2023-02-14T14:53:38;99016.91;;;1.55;0.00
23318;BME280;11831;55.918;37.746;2023-02-14T14:56:19;99036.81;;;1.73;0.00
23318;BME280;11831;55.918;37.746;2023-02-14T14:58:46;99041.66;;;1.99;0.00
23318;BME280;11831;55.918;37.746;2023-02-14T15:01:36;99036.28;;;1.92;0.00
23318;BME280;11831;55.918;37.746;2023-02-14T15:04:30;99017.37;;;1.74;0.00
23318;BME280;11831;55.918;37.746;2023-02-14T15:07:15;99040.31;;;1.50;0.00
23318;BME280;11831;55.918;37.746;2023-02-14T15:09:43;99050.91;;;1.65;0.00
23318;BME280;11831;55.918;37.746;2023-02-14T15:12:11;99064.16;;;1.57;0.00
23318;BME280;11831;55.918;37.746;2023-02-14T15:15:01;99056.53;;;1.62;0.00
23318;BME280;11831;55.918;37.746;2023-02-14T15:17:31;99061.00;;;1.76;0.00
23318;BME280;11831;55.918;37.746;2023-02-14T15:20:01;99052.62;;;1.58;0.00
23318;BME280;11831;55.918;37.746;2023-02-14T15:22:41;99056.34;;;1.78;0.00
23318;BME280;11831;55.918;37.746;2023-02-14T15:25:15;99051.88;;;1.49;0.00
23318;BME280;11831;55.918;37.746;2023-02-14T15:27:42;99069.06;;;1.60;0.00
23318;BME280;11831;55.918;37.746;2023-02-14T15:32:46;99082.16;;;1.53;0.00
23318;BME280;11831;55.918;37.746;2023-02-14T15:35:14;99103.75;;;1.86;0.00
23318;BME280;11831;55.918;37.746;2023-02-14T15:37:44;99110.66;;;1.50;0.00
23318;BME280;11831;55.918;37.746;2023-02-14T15:40:23;99062.59;;;1.48;0.00
23318;BME280;11831;55.918;37.746;2023-02-14T15:42:51;99104.91;;;1.69;0.00
23318;BME280;11831;55.918;37.746;2023-02-14T15:48:21;99112.81;;;1.46;0.00
23318;BME280;11831;55.918;37.746;2023-02-14T15:50:51;99115.63;;;1.68;0.00
23318;BME280;11831;55.918;37.746;2023-02-14T15:55:49;99115.63;;;1.82;0.00
23318;BME280;11831;55.918;37.746;2023-02-14T15:58:21;99122.25;;;2.16;0.00
23318;BME280;11831;55.918;37.746;2023-02-14T16:00:49;99126.16;;;2.20;0.00
23318;BME280;11831;55.918;37.746;2023-02-14T16:03:23;99133.94;;;2.13;0.00
23318;BME280;11831;55.918;37.746;2023-02-14T16:05:51;99132.41;;;1.90;0.00
23318;BME280;11831;55.918;37.746;2023-02-14T16:11:35;99143.72;;;1.75;0.00
23318;BME280;11831;55.918;37.746;2023-02-14T16:14:34;99154.34;;;1.82;0.00
23318;BME280;11831;55.918;37.746;2023-02-14T16:17:05;99130.28;;;1.47;0.00
23318;BME280;11831;55.918;37.746;2023-02-14T16:19:39;99173.53;;;1.07;0.00
23318;BME280;11831;55.918;37.746;2023-02-14T16:22:10;99168.78;;;1.71;0.00
23318;BME280;11831;55.918;37.746;2023-02-14T16:24:38;99150.00;;;1.51;0.00